Time;durP1;ratioP1;P1;durP2;ratioP2;P2;SDS_P1;SDS_P2;PMS_P1;PMS_P2;Temp;Humidity;BMP_temperature;BMP_pressure;BME280_temperature;BME280_humidity;BME280_pressure;Samples;Min_cycle;Max_cycle;Signal;HPM_P1;HPM_P2
2022/04/27 00:02:10;;;;;;;19.25;13.75;;;7.90;99.90;;;;;;5032909;28;20112;-71
2022/04/27 00:04:36;;;;;;;24.85;15.05;;;7.90;99.90;;;;;;5032847;28;20546;-71
2022/04/27 00:07:04;;;;;;;24.05;15.20;;;8.00;99.90;;;;;;5032911;28;20025;-71
2022/04/27 00:09:30;;;;;;;23.75;15.15;;;8.00;99.90;;;;;;5064415;28;20032;-71
2022/04/27 00:11:59;;;;;;;24.02;14.88;;;8.00;99.90;;;;;;5032860;28;20495;-70
2022/04/27 00:14:25;;;;;;;23.02;14.65;;;7.90;99.90;;;;;;5032677;28;20017;-71
2022/04/27 00:16:51;;;;;;;24.08;14.68;;;7.90;99.90;;;;;;5048093;28;20028;-72
2022/04/27 00:19:16;;;;;;;25.55;14.63;;;8.00;99.90;;;;;;5032772;28;20391;-71
2022/04/27 00:21:42;;;;;;;25.55;15.65;;;8.00;99.90;;;;;;5064902;28;20101;-71
2022/04/27 00:24:07;;;;;;;26.20;14.43;;;7.90;99.90;;;;;;5032692;28;20021;-72
2022/04/27 00:26:33;;;;;;;21.45;13.40;;;7.90;99.90;;;;;;5032699;28;20021;-71
2022/04/27 00:28:58;;;;;;;22.98;13.25;;;7.90;99.90;;;;;;5032692;28;20033;-71
2022/04/27 00:31:24;;;;;;;18.48;12.63;;;7.90;99.90;;;;;;5032643;28;20021;-71
2022/04/27 00:33:50;;;;;;;21.60;12.82;;;8.00;99.90;;;;;;5047803;28;20095;-72
2022/04/27 00:36:15;;;;;;;17.83;12.38;;;8.00;99.90;;;;;;5032586;28;20041;-71
2022/04/27 00:38:41;;;;;;;21.23;12.13;;;8.00;99.90;;;;;;5032606;28;20178;-71
2022/04/27 00:41:06;;;;;;;17.05;11.93;;;8.00;99.90;;;;;;5032534;28;20391;-72
2022/04/27 00:43:36;;;;;;;17.27;11.57;;;8.00;99.90;;;;;;5035857;28;20026;-71
2022/04/27 00:46:02;;;;;;;18.90;11.85;;;7.90;99.90;;;;;;5036104;28;20507;-72
2022/04/27 00:48:28;;;;;;;20.92;12.35;;;7.80;99.90;;;;;;5035995;28;20037;-71
2022/04/27 00:50:53;;;;;;;21.30;13.10;;;7.80;99.90;;;;;;5036048;28;20034;-71
2022/04/27 00:53:19;;;;;;;18.77;11.88;;;7.70;99.90;;;;;;5068104;28;20436;-71
2022/04/27 00:55:44;;;;;;;19.88;13.10;;;7.60;99.90;;;;;;5067969;28;20037;-71
2022/04/27 00:58:14;;;;;;;22.70;12.23;;;7.50;99.90;;;;;;5068152;28;20022;-71
2022/04/27 01:00:40;;;;;;;18.77;12.55;;;7.40;99.90;;;;;;5068013;28;20083;-71
2022/04/27 01:03:06;;;;;;;19.27;13.57;;;7.30;99.90;;;;;;5035776;28;20013;-71
2022/04/27 01:05:31;;;;;;;18.85;13.07;;;7.20;99.90;;;;;;5035776;28;20472;-71
2022/04/27 01:08:00;;;;;;;17.77;12.57;;;7.10;99.90;;;;;;5051071;28;20030;-71
2022/04/27 01:10:27;;;;;;;23.70;13.52;;;7.00;99.90;;;;;;5035669;28;20017;-71
2022/04/27 01:12:55;;;;;;;18.60;13.90;;;6.90;99.90;;;;;;5035651;28;20029;-71
2022/04/27 01:15:36;;;;;;;22.15;13.40;;;6.70;99.90;;;;;;5050816;28;20479;-70
2022/04/27 01:18:03;;;;;;;23.73;15.10;;;6.60;99.90;;;;;;5067390;28;20022;-70
2022/04/27 01:20:31;;;;;;;20.63;14.05;;;6.50;99.90;;;;;;5050826;28;20025;-70
2022/04/27 01:22:57;;;;;;;25.95;15.63;;;6.40;99.90;;;;;;5067466;28;20025;-70
2022/04/27 01:25:23;;;;;;;24.27;14.75;;;6.30;99.90;;;;;;5035417;28;20025;-70
2022/04/27 01:27:48;;;;;;;29.15;15.65;;;6.20;99.90;;;;;;5035383;28;20396;-70
2022/04/27 01:30:14;;;;;;;20.27;14.57;;;6.10;99.90;;;;;;5067495;28;20040;-70
2022/04/27 01:32:39;;;;;;;25.45;15.45;;;6.00;99.90;;;;;;5050638;28;20032;-70
2022/04/27 01:35:05;;;;;;;24.80;15.82;;;5.90;99.90;;;;;;5034932;28;20068;-70
2022/04/27 01:38:03;;;;;;;25.30;16.55;;;5.80;99.90;;;;;;5050566;28;20026;-70
2022/04/27 01:40:16;;;;;;;28.92;16.33;;;5.80;99.90;;;;;;5034976;28;20108;-70
2022/04/27 01:42:42;;;;;;;28.55;16.77;;;5.70;99.90;;;;;;5050371;28;20064;-70
2022/04/27 01:45:08;;;;;;;22.95;15.65;;;5.70;99.90;;;;;;5035002;28;20029;-70
2022/04/27 01:47:34;;;;;;;27.80;16.95;;;5.60;99.90;;;;;;5034962;28;20294;-70
2022/04/27 01:49:59;;;;;;;27.00;16.80;;;5.60;99.90;;;;;;5034935;28;20033;-69
2022/04/27 01:55:10;;;;;;;28.65;17.05;;;5.40;99.90;;;;;;5034641;28;20065;-70
2022/04/27 01:57:36;;;;;;;31.48;17.30;;;5.40;99.90;;;;;;5066785;28;20021;-69
2022/04/27 02:00:02;;;;;;;23.77;16.38;;;5.30;99.90;;;;;;5034721;28;20072;-69
2022/04/27 02:02:27;;;;;;;25.13;16.02;;;5.20;99.90;;;;;;5050051;28;20073;-70
2022/04/27 02:04:54;;;;;;;27.70;17.83;;;5.20;99.90;;;;;;5034680;28;20029;-70
2022/04/27 02:07:20;;;;;;;30.10;17.10;;;5.20;99.90;;;;;;5066257;28;20072;-70
2022/04/27 02:09:46;;;;;;;27.10;17.88;;;5.20;99.90;;;;;;5034568;28;20029;-70
2022/04/27 02:12:11;;;;;;;28.17;18.42;;;5.20;99.90;;;;;;5066587;28;20022;-71
2022/04/27 02:14:36;;;;;;;30.80;19.33;;;5.10;99.90;;;;;;5034373;28;20029;-70
2022/04/27 02:17:02;;;;;;;30.08;19.30;;;5.00;99.90;;;;;;5034420;28;20512;-70
2022/04/27 02:19:28;;;;;;;37.78;18.08;;;5.00;99.90;;;;;;5066359;28;20022;-70
2022/04/27 02:21:53;;;;;;;27.95;17.23;;;5.00;99.90;;;;;;5066282;28;20017;-70
2022/04/27 02:24:19;;;;;;;31.45;18.08;;;4.90;99.90;;;;;;5049601;28;20032;-70
2022/04/27 02:26:44;;;;;;;29.60;18.92;;;4.80;99.90;;;;;;5066229;28;20025;-70
2022/04/27 02:29:10;;;;;;;26.33;16.85;;;4.80;99.90;;;;;;5049528;28;20399;-70
2022/04/27 02:31:35;;;;;;;30.05;19.27;;;4.80;99.90;;;;;;5034117;28;20040;-70
2022/04/27 02:34:01;;;;;;;35.55;19.33;;;4.80;99.90;;;;;;5049126;28;20128;-70
2022/04/27 02:36:26;;;;;;;28.42;18.73;;;4.70;99.90;;;;;;5034041;28;20025;-70
2022/04/27 02:38:52;;;;;;;31.60;19.45;;;4.70;99.90;;;;;;5066047;28;20459;-70
2022/04/27 02:41:18;;;;;;;26.33;17.52;;;4.60;99.90;;;;;;5033947;28;20396;-69
2022/04/27 02:43:44;;;;;;;32.00;19.35;;;4.60;99.90;;;;;;5034002;28;20085;-69
2022/04/27 02:46:09;;;;;;;25.35;16.92;;;4.60;99.90;;;;;;5049193;28;20100;-69
2022/04/27 02:48:35;;;;;;;29.77;18.17;;;4.50;99.90;;;;;;5033749;28;20025;-69
2022/04/27 02:53:47;;;;;;;31.60;18.08;;;4.40;99.90;;;;;;5060288;28;20029;-69
2022/04/27 02:56:12;;;;;;;31.13;19.95;;;4.40;99.90;;;;;;5033701;28;20160;-71
2022/04/27 02:58:38;;;;;;;30.90;18.52;;;4.40;99.90;;;;;;5049004;28;20048;-71
2022/04/27 03:01:03;;;;;;;28.50;19.02;;;4.40;99.90;;;;;;5065712;28;20028;-71
2022/04/27 03:03:29;;;;;;;33.58;19.63;;;4.40;99.90;;;;;;5065650;28;20097;-71
2022/04/27 03:05:54;;;;;;;31.52;19.20;;;4.30;99.90;;;;;;5033163;28;20099;-71
2022/04/27 03:08:20;;;;;;;31.75;19.73;;;4.30;99.90;;;;;;5033472;28;20087;-70
2022/04/27 03:10:47;;;;;;;34.28;20.90;;;4.30;99.90;;;;;;5033538;28;20490;-70
2022/04/27 03:13:13;;;;;;;35.28;21.38;;;;;;;;;;5065192;28;20029;-71
2022/04/27 03:15:38;;;;;;;34.67;20.38;;;4.20;99.90;;;;;;5033371;28;20025;-71
2022/04/27 03:18:35;;;;;;;34.10;20.17;;;4.20;99.90;;;;;;5048677;28;20080;-71
2022/04/27 03:20:50;;;;;;;39.90;22.08;;;4.20;99.90;;;;;;5033221;28;20028;-71
2022/04/27 03:23:16;;;;;;;34.00;21.63;;;4.10;99.90;;;;;;5065350;28;20021;-71
2022/04/27 03:25:42;;;;;;;37.75;21.35;;;4.10;99.90;;;;;;5033372;28;20061;-71
2022/04/27 03:28:08;;;;;;;29.73;20.35;;;4.00;99.90;;;;;;5033221;28;20053;-71
2022/04/27 03:30:33;;;;;;;33.35;19.83;;;4.00;99.90;;;;;;5033254;28;20074;-71
2022/04/27 03:33:00;;;;;;;35.08;19.95;;;4.00;99.90;;;;;;5033193;28;20414;-71
2022/04/27 03:35:26;;;;;;;35.08;22.40;;;3.90;99.90;;;;;;5064788;28;20412;-71
2022/04/27 03:37:52;;;;;;;33.88;21.85;;;4.00;99.90;;;;;;5048397;28;20022;-71
2022/04/27 03:40:21;;;;;;;35.17;22.02;;;4.00;99.90;;;;;;5033122;28;20503;-71
2022/04/27 03:42:47;;;;;;;39.88;21.50;;;3.90;99.90;;;;;;5033146;28;20045;-71
2022/04/27 03:45:13;;;;;;;35.28;21.95;;;3.90;99.90;;;;;;5065281;28;20118;-71
2022/04/27 03:47:38;;;;;;;45.00;22.95;;;3.90;99.90;;;;;;5033071;28;20492;-71
2022/04/27 03:50:04;;;;;;;44.10;24.15;;;4.00;99.90;;;;;;5032991;28;20109;-70
2022/04/27 03:52:31;;;;;;;39.80;22.73;;;4.00;99.90;;;;;;5048246;28;20076;-71
2022/04/27 03:55:00;;;;;;;39.13;24.60;;;4.00;99.90;;;;;;5032891;28;20030;-71
2022/04/27 03:57:27;;;;;;;48.75;26.27;;;4.00;99.90;;;;;;5032977;28;20535;-71
2022/04/27 03:59:53;;;;;;;48.65;25.38;;;4.10;99.90;;;;;;5065054;28;20044;-70
2022/04/27 04:02:18;;;;;;;42.60;25.13;;;4.30;99.90;;;;;;5064928;28;20472;-70
2022/04/27 04:04:44;;;;;;;41.25;24.08;;;4.30;99.90;;;;;;5032947;28;20079;-71
2022/04/27 04:07:10;;;;;;;46.42;25.33;;;4.30;99.90;;;;;;5064964;28;20029;-71
2022/04/27 04:09:36;;;;;;;44.60;25.60;;;4.30;99.90;;;;;;5064574;28;20529;-71
2022/04/27 04:12:01;;;;;;;45.83;25.13;;;4.30;99.90;;;;;;5032768;28;20116;-70
2022/04/27 04:14:27;;;;;;;46.35;26.10;;;4.40;99.90;;;;;;5032768;28;20395;-70
2022/04/27 04:16:52;;;;;;;44.95;26.30;;;4.50;99.90;;;;;;5033723;28;20033;-70
2022/04/27 04:19:18;;;;;;;47.88;24.35;;;4.50;99.90;;;;;;5036570;28;20032;-70
2022/04/27 04:21:43;;;;;;;47.03;25.50;;;4.50;99.90;;;;;;5051985;28;20439;-70
2022/04/27 04:24:09;;;;;;;41.40;24.55;;;4.60;99.90;;;;;;5036642;28;20104;-70
2022/04/27 04:29:20;;;;;;;39.45;23.92;;;4.70;99.90;;;;;;5062995;28;20018;-70
2022/04/27 04:31:45;;;;;;;38.92;23.92;;;4.70;99.90;;;;;;5051703;28;20028;-70
2022/04/27 04:34:11;;;;;;;46.35;25.98;;;4.80;99.90;;;;;;5036169;28;20049;-70
2022/04/27 04:36:36;;;;;;;39.60;23.50;;;4.90;99.90;;;;;;5068363;28;20559;-70
2022/04/27 04:39:02;;;;;;;40.72;24.48;;;4.90;99.90;;;;;;5036259;28;20017;-70
2022/04/27 04:41:27;;;;;;;39.15;23.88;;;5.00;99.90;;;;;;5036217;28;20499;-70
2022/04/27 04:43:53;;;;;;;45.97;24.90;;;5.10;99.90;;;;;;5036190;28;20063;-70
2022/04/27 04:46:18;;;;;;;39.08;23.23;;;5.20;99.90;;;;;;5036181;28;20432;-70
2022/04/27 04:48:44;;;;;;;36.88;22.00;;;5.20;99.90;;;;;;5036148;28;20037;-70
2022/04/27 04:51:09;;;;;;;41.63;23.77;;;5.20;99.90;;;;;;5036037;28;20026;-70
2022/04/27 04:53:35;;;;;;;38.97;22.80;;;5.20;99.90;;;;;;5068130;28;20025;-70
2022/04/27 04:56:00;;;;;;;38.83;21.38;;;5.30;99.90;;;;;;5035964;28;20029;-70
2022/04/27 04:58:26;;;;;;;35.22;21.70;;;5.40;99.90;;;;;;5067960;28;20028;-70
2022/04/27 05:00:51;;;;;;;36.35;21.15;;;5.40;99.90;;;;;;5067991;28;20034;-70
2022/04/27 05:03:17;;;;;;;36.15;21.55;;;5.50;99.90;;;;;;5035829;28;20088;-70
2022/04/27 05:05:43;;;;;;;35.10;21.02;;;5.60;99.90;;;;;;5051115;28;20063;-70
2022/04/27 05:08:09;;;;;;;36.53;21.40;;;5.50;99.90;;;;;;5051011;28;20083;-70
2022/04/27 05:10:36;;;;;;;39.70;22.30;;;5.60;99.90;;;;;;5035651;28;20442;-70
2022/04/27 05:13:01;;;;;;;31.52;20.88;;;5.70;99.90;;;;;;5067658;28;20053;-70
2022/04/27 05:15:27;;;;;;;33.05;19.83;;;5.80;99.90;;;;;;5067574;28;20076;-70
2022/04/27 05:17:52;;;;;;;35.10;20.70;;;5.80;99.90;;;;;;5050947;28;20022;-70
2022/04/27 05:20:18;;;;;;;33.40;19.50;;;6.00;99.90;;;;;;5067567;28;20061;-71
2022/04/27 05:22:43;;;;;;;30.73;19.05;;;6.00;99.90;;;;;;5035507;28;20104;-71
2022/04/27 05:25:10;;;;;;;31.30;19.50;;;6.20;99.90;;;;;;5035341;28;20029;-71
2022/04/27 05:27:37;;;;;;;31.25;18.45;;;6.40;99.90;;;;;;5034996;28;20022;-71
2022/04/27 05:32:50;;;;;;;26.63;17.27;;;6.50;99.90;;;;;;5061843;28;20073;-71
2022/04/27 05:35:15;;;;;;;27.45;16.67;;;6.60;99.90;;;;;;5034951;28;20073;-71
2022/04/27 05:37:41;;;;;;;25.88;17.35;;;6.60;99.90;;;;;;5035187;28;20395;-71
2022/04/27 05:40:08;;;;;;;23.63;16.40;;;6.80;99.90;;;;;;5035067;28;20021;-71
2022/04/27 05:42:35;;;;;;;23.75;16.85;;;7.20;99.90;;;;;;5066739;28;20032;-71
2022/04/27 05:45:00;;;;;;;25.77;15.07;;;7.70;99.90;;;;;;5050325;28;20021;-72
2022/04/27 05:47:26;;;;;;;23.30;14.57;;;8.80;99.90;;;;;;5034973;28;20438;-72
2022/04/27 05:49:52;;;;;;;18.92;13.02;;;9.50;99.90;;;;;;5034962;28;20029;-71
2022/04/27 05:52:20;;;;;;;18.00;12.65;;;10.10;99.90;;;;;;5034874;28;20029;-72
2022/04/27 05:54:47;;;;;;;19.08;12.30;;;10.80;99.90;;;;;;5034850;28;20496;-72
2022/04/27 05:57:13;;;;;;;17.52;11.70;;;11.20;99.90;;;;;;5034645;28;20419;-72
2022/04/27 05:59:38;;;;;;;17.15;12.00;;;12.20;99.90;;;;;;5034754;28;20026;-73
2022/04/27 06:02:04;;;;;;;12.38;10.77;;;12.30;99.90;;;;;;5034950;28;20033;-73
2022/04/27 06:04:29;;;;;;;19.63;11.40;;;13.00;99.90;;;;;;5034370;28;20029;-73
2022/04/27 06:06:55;;;;;;;13.77;10.50;;;13.70;99.90;;;;;;5034525;28;20381;-73
2022/04/27 06:09:21;;;;;;;14.93;10.10;;;13.80;99.90;;;;;;5034569;28;20025;-73
2022/04/27 06:11:47;;;;;;;14.57;10.73;;;13.40;99.90;;;;;;5034594;28;20032;-73
2022/04/27 06:14:12;;;;;;;20.58;10.57;;;14.30;99.90;;;;;;5034315;28;20553;-73
2022/04/27 06:16:38;;;;;;;16.05;11.40;;;14.10;99.90;;;;;;5034392;28;20017;-73
2022/04/27 06:19:04;;;;;;;13.02;10.60;;;13.60;99.90;;;;;;5034267;28;20022;-73
2022/04/27 06:21:31;;;;;;;13.00;10.82;;;14.00;99.90;;;;;;5045145;28;20032;-73
2022/04/27 06:24:00;;;;;;;13.68;10.40;;;14.10;99.90;;;;;;5052765;28;20025;-73
2022/04/27 06:26:25;;;;;;;15.18;10.35;;;14.60;99.90;;;;;;5054008;28;20029;-73
2022/04/27 06:28:51;;;;;;;16.30;10.25;;;14.90;99.90;;;;;;5054129;28;20044;-73
2022/04/27 06:31:18;;;;;;;13.80;10.52;;;14.80;99.90;;;;;;5053977;28;20017;-72
2022/04/27 06:33:43;;;;;;;12.32;10.25;;;13.80;99.90;;;;;;5053526;28;20037;-73
2022/04/27 06:36:09;;;;;;;14.02;10.25;;;14.00;99.90;;;;;;5053095;28;20637;-73
2022/04/27 06:38:34;;;;;;;12.52;9.38;;;14.10;99.90;;;;;;5035907;28;20021;-73
2022/04/27 06:41:01;;;;;;;13.18;9.98;;;14.00;99.90;;;;;;5052883;28;20471;-72
2022/04/27 06:43:27;;;;;;;11.65;9.60;;;13.80;99.90;;;;;;5051844;28;20060;-72
2022/04/27 06:45:52;;;;;;;13.75;10.15;;;13.90;99.90;;;;;;5049818;28;20060;-72
2022/04/27 06:48:18;;;;;;;10.70;8.80;;;14.10;99.90;;;;;;5051545;28;20025;-73
2022/04/27 06:50:43;;;;;;;11.50;9.45;;;14.60;99.90;;;;;;5051570;28;20045;-72
2022/04/27 06:53:09;;;;;;;13.18;10.10;;;15.00;99.90;;;;;;5052726;28;20021;-73
2022/04/27 06:55:35;;;;;;;11.48;9.43;;;14.90;99.90;;;;;;5054665;28;20506;-73
2022/04/27 06:58:00;;;;;;;12.13;9.57;;;15.30;99.90;;;;;;5051694;28;20368;-73
2022/04/27 07:00:26;;;;;;;12.05;9.63;;;16.10;99.90;;;;;;5053394;28;20573;-73
2022/04/27 07:02:52;;;;;;;12.80;9.00;;;16.30;99.90;;;;;;5051906;28;20067;-73
2022/04/27 07:05:19;;;;;;;10.38;8.18;;;17.00;97.80;;;;;;5052705;28;20025;-69
2022/04/27 07:07:45;;;;;;;14.05;8.98;;;17.10;95.40;;;;;;5053212;28;20486;-69
2022/04/27 07:10:12;;;;;;;12.52;8.55;;;16.90;96.70;;;;;;5053070;28;20060;-73
2022/04/27 07:12:37;;;;;;;12.63;9.20;;;17.60;95.40;;;;;;5053275;28;20471;-73
2022/04/27 07:15:04;;;;;;;12.85;9.20;;;17.50;95.40;;;;;;5053138;28;20032;-73
2022/04/27 07:17:29;;;;;;;15.25;9.07;;;18.00;93.50;;;;;;5051924;28;20017;-73
2022/04/27 07:19:56;;;;;;;14.13;9.27;;;17.90;91.40;;;;;;5051955;28;20479;-73
2022/04/27 07:22:22;;;;;;;11.82;8.88;;;18.10;90.20;;;;;;5052907;28;20032;-73
2022/04/27 07:24:49;;;;;;;13.15;8.60;;;17.20;93.70;;;;;;5053010;28;20067;-73
2022/04/27 07:27:15;;;;;;;13.25;8.52;;;17.10;93.10;;;;;;5052890;28;20029;-73
2022/04/27 07:29:40;;;;;;;13.55;8.77;;;17.50;92.70;;;;;;5052932;28;20107;-73
2022/04/27 07:32:06;;;;;;;16.75;9.20;;;16.90;93.50;;;;;;5053133;28;20025;-73
2022/04/27 07:34:32;;;;;;;12.25;9.07;;;17.10;94.20;;;;;;5051475;28;20467;-73
2022/04/27 07:36:58;;;;;;;12.95;8.18;;;17.30;93.70;;;;;;5051925;28;20053;-73
2022/04/27 07:39:24;;;;;;;14.27;8.75;;;17.20;93.80;;;;;;5053097;28;20029;-73
2022/04/27 07:41:50;;;;;;;16.02;9.35;;;19.10;88.60;;;;;;5053141;28;20472;-72
2022/04/27 07:44:16;;;;;;;16.85;9.07;;;18.80;82.10;;;;;;5052955;28;20078;-73
2022/04/27 07:46:47;;;;;;;14.63;9.00;;;19.60;81.50;;;;;;5052031;28;20025;-73
2022/04/27 07:49:13;;;;;;;15.18;9.85;;;20.10;78.20;;;;;;5052711;28;20509;-73
2022/04/27 07:51:38;;;;;;;15.93;9.15;;;20.10;75.90;;;;;;5055306;28;20494;-73
2022/04/27 07:54:04;;;;;;;13.68;8.73;;;19.00;82.60;;;;;;5039016;28;20025;-73
2022/04/27 07:56:29;;;;;;;16.42;9.80;;;19.20;76.80;;;;;;5057060;28;20075;-73
2022/04/27 07:58:55;;;;;;;12.50;9.20;;;18.90;81.50;;;;;;5055707;28;20526;-73
2022/04/27 08:01:21;;;;;;;10.73;7.70;;;18.10;83.70;;;;;;5056883;28;20029;-73
2022/04/27 08:03:46;;;;;;;12.85;7.22;;;18.80;78.30;;;;;;5056627;28;20029;-73
2022/04/27 08:06:12;;;;;;;9.20;7.97;;;18.60;79.40;;;;;;5056898;28;20021;-73
2022/04/27 08:08:38;;;;;;;12.88;8.40;;;19.70;79.10;;;;;;5056663;28;20017;-73
2022/04/27 08:11:04;;;;;;;11.68;7.80;;;20.20;74.50;;;;;;5056668;28;20387;-68
2022/04/27 08:13:31;;;;;;;10.05;8.00;;;19.80;76.80;;;;;;5055313;28;20021;-69
2022/04/27 08:15:57;;;;;;;10.70;7.05;;;20.10;73.40;;;;;;5056378;28;20183;-72
2022/04/27 08:18:22;;;;;;;13.30;7.45;;;20.50;72.20;;;;;;5056426;28;20088;-72
2022/04/27 08:21:21;;;;;;;9.85;7.93;;;19.80;72.00;;;;;;5038677;28;20432;-72
2022/04/27 08:23:34;;;;;;;13.90;8.00;;;20.40;71.00;;;;;;5056153;28;20188;-72
2022/04/27 08:26:01;;;;;;;9.82;7.10;;;19.90;72.00;;;;;;5056485;28;20097;-71
2022/04/27 08:28:27;;;;;;;9.27;6.07;;;19.60;69.40;;;;;;5056434;28;20399;-71
2022/04/27 08:30:53;;;;;;;9.13;6.25;;;20.40;66.60;;;;;;5054991;28;20033;-71
2022/04/27 08:33:19;;;;;;;8.95;6.20;;;20.20;64.30;;;;;;5056098;28;20497;-71
2022/04/27 08:35:46;;;;;;;9.52;6.90;;;19.00;64.90;;;;;;5055911;28;20054;-71
2022/04/27 08:38:13;;;;;;;9.65;6.80;;;18.90;70.30;;;;;;5056094;28;20490;-72
2022/04/27 08:40:41;;;;;;;12.60;7.78;;;18.60;70.20;;;;;;5055916;28;20060;-71
2022/04/27 08:43:09;;;;;;;10.05;6.70;;;18.80;76.50;;;;;;5056010;28;20025;-71
2022/04/27 08:45:35;;;;;;;11.80;6.90;;;20.00;69.00;;;;;;5055924;28;20122;-71
2022/04/27 08:48:01;;;;;;;10.45;6.30;;;20.50;64.70;;;;;;5054677;28;20056;-71
2022/04/27 08:50:27;;;;;;;10.85;6.30;;;20.20;63.80;;;;;;5054727;28;20048;-72
2022/04/27 08:52:54;;;;;;;9.50;5.70;;;21.00;65.40;;;;;;5054530;28;20021;-71
2022/04/27 08:55:20;;;;;;;9.95;5.40;;;21.40;59.80;;;;;;5055827;28;20112;-71
2022/04/27 08:57:46;;;;;;;10.70;5.15;;;21.10;60.80;;;;;;5055724;28;20422;-71
2022/04/27 09:00:14;;;;;;;10.18;6.15;;;21.00;59.80;;;;;;5055453;28;20025;-71
2022/04/27 09:02:40;;;;;;;11.13;7.32;;;19.60;63.50;;;;;;5055061;28;20402;-72
2022/04/27 09:05:12;;;;;;;12.65;7.07;;;18.90;68.60;;;;;;5055543;28;20112;-71
2022/04/27 09:10:19;;;;;;;9.77;6.97;;;19.50;66.60;;;;;;5126988;27;20133;-72
2022/04/27 09:12:48;;;;;;;13.95;6.80;;;18.20;73.70;;;;;;5110991;28;20567;-71
2022/04/27 09:15:16;;;;;;;9.98;6.60;;;18.40;74.30;;;;;;5110671;28;20035;-71
2022/04/27 09:20:59;;;;;;;11.10;6.88;;;18.60;70.60;;;;;;5109389;28;20024;-71
2022/04/27 09:26:14;;;;;;;12.33;7.17;;;20.20;67.10;;;;;;5142502;27;20362;-71
2022/04/27 09:28:39;;;;;;;12.80;7.47;;;20.00;64.50;;;;;;5110779;28;20300;-71
2022/04/27 09:31:05;;;;;;;10.85;6.82;;;19.30;66.70;;;;;;5109224;28;20052;-72
2022/04/27 09:33:39;;;;;;;8.57;6.78;;;18.70;69.70;;;;;;5110681;28;20095;-72
2022/04/27 09:36:23;;;;;;;11.05;6.72;;;19.60;69.60;;;;;;5110744;28;20035;-72
2022/04/27 09:38:49;;;;;;;11.75;7.47;;;20.60;63.40;;;;;;5110908;28;20504;-72
2022/04/27 09:41:15;;;;;;;9.32;7.18;;;20.20;65.60;;;;;;5110601;28;20102;-72
2022/04/27 09:43:46;;;;;;;11.35;7.63;;;20.20;66.80;;;;;;5109270;28;20473;-72
2022/04/27 09:46:27;;;;;;;10.82;7.60;;;20.00;69.70;;;;;;5110750;28;20389;-72
2022/04/27 09:49:14;;;;;;;10.70;7.80;;;20.80;69.00;;;;;;5110399;28;20024;-71
2022/04/27 09:51:49;;;;;;;12.05;7.90;;;19.80;67.10;;;;;;5109299;28;20035;-72
2022/04/27 09:54:24;;;;;;;9.93;7.75;;;19.40;70.60;;;;;;5110356;28;20027;-72
2022/04/27 09:56:54;;;;;;;9.57;8.23;;;20.70;68.30;;;;;;5109423;28;20436;-72
2022/04/27 09:59:22;;;;;;;10.02;8.15;;;20.10;65.20;;;;;;5109195;28;20042;-70
2022/04/27 10:01:49;;;;;;;11.88;8.02;;;19.50;64.90;;;;;;5108005;28;20438;-72
2022/04/27 10:04:20;;;;;;;11.48;8.30;;;19.40;66.90;;;;;;5110077;28;20451;-71
2022/04/27 10:06:47;;;;;;;11.55;9.30;;;19.30;67.20;;;;;;5110346;28;20109;-72
2022/04/27 10:09:13;;;;;;;11.13;9.20;;;19.30;68.40;;;;;;5109992;28;20020;-72
2022/04/27 10:11:40;;;;;;;11.07;8.13;;;19.90;65.40;;;;;;5108760;28;20080;-72
2022/04/27 10:14:07;;;;;;;12.02;8.02;;;19.70;67.80;;;;;;5109974;28;20055;-72
2022/04/27 10:16:34;;;;;;;12.68;8.75;;;19.60;66.60;;;;;;5108664;28;20034;-72
2022/04/27 10:18:59;;;;;;;11.85;8.82;;;19.30;68.00;;;;;;5109938;28;20031;-71
2022/04/27 10:21:43;;;;;;;11.20;8.48;;;19.20;68.90;;;;;;5110018;28;20065;-71
2022/04/27 10:24:11;;;;;;;10.60;8.45;;;19.00;67.70;;;;;;5108346;28;20482;-72
2022/04/27 10:26:37;;;;;;;11.27;8.65;;;19.70;68.20;;;;;;5108816;28;20121;-71
2022/04/27 10:29:06;;;;;;;9.38;7.50;;;19.20;67.00;;;;;;5109797;28;20099;-71
2022/04/27 10:34:29;;;;;;;11.65;8.07;;;19.30;66.20;;;;;;5126804;27;20133;-72
2022/04/27 10:36:56;;;;;;;12.15;8.63;;;19.70;68.20;;;;;;5109676;28;20040;-71
2022/04/27 10:39:24;;;;;;;12.40;8.23;;;19.90;65.20;;;;;;5110775;28;20036;-71
2022/04/27 10:47:34;;;;;;;12.50;8.70;;;20.10;63.90;;;;;;5123309;27;20507;-71
2022/04/27 10:50:18;;;;;;;14.48;9.10;;;18.70;69.80;;;;;;5090262;28;20024;-71
2022/04/27 10:52:44;;;;;;;;;;;18.40;70.30;;;;;;5090886;28;20040;-71
2022/04/27 10:55:36;;;;;;;14.25;9.65;;;18.20;72.70;;;;;;5090373;28;19904;-71
2022/04/27 10:58:25;;;;;;;13.48;9.57;;;18.40;69.10;;;;;;5090322;28;20074;-71
2022/04/27 11:01:15;;;;;;;12.63;8.70;;;18.80;74.60;;;;;;5090306;28;20115;-71
2022/04/27 11:03:41;;;;;;;13.80;9.00;;;18.70;71.00;;;;;;5088831;28;20024;-71
2022/04/27 11:06:10;;;;;;;15.88;10.50;;;18.70;70.50;;;;;;5090087;28;20020;-71
2022/04/27 11:09:08;;;;;;;12.90;10.07;;;17.80;71.20;;;;;;5122344;28;20394;-71
2022/04/27 11:11:51;;;;;;;14.10;8.90;;;17.30;76.20;;;;;;5089872;28;20451;-71
2022/04/27 11:14:19;;;;;;;15.32;10.40;;;17.30;77.40;;;;;;5090390;28;20090;-71
2022/04/27 11:16:47;;;;;;;13.27;10.85;;;17.90;75.80;;;;;;5122773;28;20032;-71
2022/04/27 11:19:13;;;;;;;12.38;10.50;;;17.50;78.00;;;;;;5088585;28;20020;-70
2022/04/27 11:21:39;;;;;;;13.50;10.50;;;17.30;76.20;;;;;;5089967;28;20152;-71
2022/04/27 11:24:13;;;;;;;15.80;11.45;;;17.20;80.30;;;;;;5090093;28;20107;-71
2022/04/27 11:26:44;;;;;;;13.60;10.43;;;17.20;81.20;;;;;;5122027;28;20061;-71
2022/04/27 11:29:12;;;;;;;12.98;10.90;;;17.90;82.00;;;;;;5089555;28;20431;-71
2022/04/27 11:31:38;;;;;;;12.27;10.50;;;18.40;75.50;;;;;;5089624;28;20016;-71
2022/04/27 11:34:24;;;;;;;14.65;11.32;;;18.10;75.10;;;;;;5089735;28;20020;-71
2022/04/27 11:36:51;;;;;;;12.95;10.95;;;17.00;76.60;;;;;;5089274;28;20024;-71
2022/04/27 11:39:25;;;;;;;13.15;10.32;;;16.80;80.20;;;;;;5089449;28;20028;-71
2022/04/27 11:42:05;;;;;;;16.40;12.57;;;17.30;82.50;;;;;;5089781;28;20386;-71
2022/04/27 11:44:32;;;;;;;14.40;10.85;;;17.30;77.80;;;;;;5089371;28;20071;-71
2022/04/27 11:46:58;;;;;;;16.35;11.30;;;17.40;83.80;;;;;;5089016;28;20074;-71
2022/04/27 11:49:24;;;;;;;16.08;12.10;;;17.20;79.90;;;;;;5089551;28;20094;-71
2022/04/27 11:51:50;;;;;;;16.98;12.65;;;17.00;80.30;;;;;;5089597;28;20032;-71
2022/04/27 11:54:32;;;;;;;16.92;12.90;;;17.20;83.30;;;;;;5089320;28;20027;-71
2022/04/27 11:57:01;;;;;;;19.27;12.25;;;17.70;81.70;;;;;;5086008;28;20021;-71
2022/04/27 11:59:42;;;;;;;17.80;12.07;;;17.90;76.00;;;;;;5074413;28;20028;-70
2022/04/27 12:02:08;;;;;;;15.45;12.68;;;17.70;77.80;;;;;;5107919;28;20429;-70
2022/04/27 12:04:35;;;;;;;15.40;11.98;;;18.10;79.30;;;;;;5074379;28;20039;-72
2022/04/27 12:07:01;;;;;;;15.77;12.57;;;17.70;77.50;;;;;;5075623;28;20434;-71
2022/04/27 12:09:27;;;;;;;17.45;12.38;;;17.60;78.00;;;;;;5091208;28;20021;-72
2022/04/27 12:11:53;;;;;;;18.38;13.73;;;18.00;77.60;;;;;;5075831;28;20046;-70
2022/04/27 12:14:19;;;;;;;15.45;11.82;;;17.90;77.90;;;;;;5075471;28;20016;-72
2022/04/27 12:16:45;;;;;;;16.17;12.43;;;18.30;77.40;;;;;;5090854;28;20052;-71
2022/04/27 12:19:13;;;;;;;17.80;14.18;;;18.40;73.80;;;;;;5075780;28;20049;-71
2022/04/27 12:21:39;;;;;;;19.35;12.75;;;18.30;72.30;;;;;;5075476;28;20466;-71
2022/04/27 12:24:20;;;;;;;18.65;13.15;;;18.10;77.50;;;;;;5075428;28;20024;-71
2022/04/27 12:26:46;;;;;;;15.25;12.45;;;17.40;77.30;;;;;;5075410;28;20036;-71
2022/04/27 12:29:12;;;;;;;16.48;12.43;;;17.30;77.00;;;;;;5075306;28;20013;-72
2022/04/27 12:31:37;;;;;;;16.92;13.07;;;17.60;80.00;;;;;;5107229;28;20040;-71
2022/04/27 12:37:29;;;;;;;19.20;13.77;;;17.40;79.70;;;;;;5074344;28;20024;-70
2022/04/27 12:39:39;;;;;;;15.70;13.00;;;17.20;78.20;;;;;;5074684;28;20099;-71
2022/04/27 12:42:09;;;;;;;18.70;13.70;;;16.90;81.30;;;;;;5074610;28;20025;-71
2022/04/27 12:44:40;;;;;;;19.80;13.85;;;16.70;81.80;;;;;;5074373;28;20402;-70
2022/04/27 12:47:08;;;;;;;22.60;13.82;;;16.90;82.30;;;;;;5074503;28;20463;-71
2022/04/27 12:49:37;;;;;;;16.63;11.85;;;17.30;85.50;;;;;;5073592;28;20032;-72
2022/04/27 12:52:26;;;;;;;19.55;13.90;;;17.90;81.10;;;;;;5073247;28;20455;-71
2022/04/27 12:55:03;;;;;;;17.50;12.93;;;17.50;81.10;;;;;;5073804;28;20104;-72
2022/04/27 12:57:43;;;;;;;18.98;12.98;;;17.10;81.90;;;;;;5073070;28;20037;-72
2022/04/27 13:00:09;;;;;;;18.00;13.07;;;16.50;83.30;;;;;;5073979;28;20074;-72
2022/04/27 13:02:34;;;;;;;15.50;12.55;;;16.60;84.30;;;;;;5073808;28;20471;-71
2022/04/27 13:05:00;;;;;;;18.58;13.25;;;17.10;81.00;;;;;;5072739;28;20060;-72
2022/04/27 13:07:26;;;;;;;13.73;11.32;;;17.50;82.80;;;;;;5071729;28;20028;-71
2022/04/27 13:12:38;;;;;;;15.75;11.85;;;17.50;81.10;;;;;;5074175;28;20021;-72